Time;durP1;ratioP1;P1;durP2;ratioP2;P2;SDS_P1;SDS_P2;PMS_P1;PMS_P2;Temp;Humidity;BMP_temperature;BMP_pressure;BME280_temperature;BME280_humidity;BME280_pressure;Samples;Min_cycle;Max_cycle;Signal;HPM_P1;HPM_P2
2021/07/18 00:01:24;;;;;;;5.23;3.03;;;21.10;99.90;;;21.52;62.30;101949.78;4965729;28;98328;-49
2021/07/18 00:03:50;;;;;;;6.73;3.27;;;21.00;99.90;;;21.52;62.29;101949.78;4969645;28;97407;-50
2021/07/18 00:06:15;;;;;;;4.47;3.10;;;21.10;99.90;;;21.48;62.69;101953.63;4960340;28;97767;-56
2021/07/18 00:08:41;;;;;;;4.27;3.43;;;21.00;99.90;;;21.49;63.38;101955.34;4980167;28;101159;-51
2021/07/18 00:11:07;;;;;;;4.83;3.10;;;21.00;99.90;;;21.44;62.42;101946.72;4961888;28;99011;-52
2021/07/18 00:13:33;;;;;;;3.60;2.87;;;21.00;99.90;;;21.41;61.57;101953.13;4968618;28;97929;-56
2021/07/18 00:15:59;;;;;;;6.70;3.07;;;21.00;99.90;;;21.41;61.97;101953.13;4980053;28;97745;-50
2021/07/18 00:18:24;;;;;;;8.17;3.87;;;21.00;99.90;;;21.38;62.57;101948.78;4965987;28;104249;-55
2021/07/18 00:20:50;;;;;;;4.17;3.20;;;20.90;99.90;;;21.37;61.87;101943.53;4965048;28;102704;-52
2021/07/18 00:23:17;;;;;;;5.47;3.10;;;21.00;99.90;;;21.34;62.86;101936.53;4960966;28;100130;-52
2021/07/18 00:25:44;;;;;;;8.47;3.70;;;20.90;99.90;;;21.35;62.94;101938.25;4982749;28;97933;-57
2021/07/18 00:28:10;;;;;;;3.87;2.90;;;20.90;99.90;;;21.28;62.89;101941.41;4960343;28;98649;-57
2021/07/18 00:30:37;;;;;;;5.43;3.13;;;20.90;99.90;;;21.33;63.33;101950.03;4966911;28;98203;-48
2021/07/18 00:33:04;;;;;;;4.70;3.43;;;20.90;99.90;;;21.31;62.92;101943.91;4959270;28;97535;-51
2021/07/18 00:35:30;;;;;;;5.53;3.23;;;20.90;99.90;;;21.31;63.50;101946.59;4968340;28;97335;-57
2021/07/18 00:37:56;;;;;;;4.60;3.23;;;20.90;99.90;;;21.34;63.57;101946.41;4964045;28;99828;-53
2021/07/18 00:40:22;;;;;;;5.27;3.37;;;20.90;99.90;;;21.33;63.74;101939.31;4963367;28;98568;-52
2021/07/18 00:42:48;;;;;;;4.33;3.60;;;20.90;99.90;;;21.34;63.72;101943.72;4969314;28;100854;-51
2021/07/18 00:45:14;;;;;;;4.43;2.97;;;20.90;99.90;;;21.29;63.29;101943.13;4965673;28;98202;-55
2021/07/18 00:47:41;;;;;;;7.87;3.73;;;20.90;99.90;;;21.33;63.60;101939.31;4984568;28;98833;-49
2021/07/18 00:50:13;;;;;;;6.33;3.30;;;20.90;99.90;;;21.32;63.71;101943.81;4945469;28;99490;-53
2021/07/18 00:52:39;;;;;;;4.83;3.30;;;20.90;99.90;;;21.35;63.83;101943.63;4964501;28;98844;-51
2021/07/18 00:55:07;;;;;;;7.30;3.63;;;20.90;99.90;;;21.35;63.98;101942.75;4966941;28;97256;-56
2021/07/18 00:57:34;;;;;;;3.57;3.00;;;20.90;99.90;;;21.36;63.50;101950.72;4967228;28;100031;-53
2021/07/18 01:00:07;;;;;;;4.60;3.37;;;20.90;99.90;;;21.40;63.62;101935.28;4968353;28;98673;-55
2021/07/18 01:02:33;;;;;;;5.93;3.70;;;20.90;99.90;;;21.43;63.71;101935.13;4965725;28;100243;-54
2021/07/18 01:04:59;;;;;;;3.87;3.27;;;20.90;99.90;;;21.39;63.41;101944.28;4967796;28;99757;-54
2021/07/18 01:07:26;;;;;;;5.50;3.50;;;20.90;99.90;;;21.39;63.78;101949.66;4964159;28;101526;-54
2021/07/18 01:09:52;;;;;;;4.87;3.30;;;20.90;99.90;;;21.41;63.69;101942.41;4966025;28;98837;-49
2021/07/18 01:12:18;;;;;;;6.20;3.87;;;20.90;99.90;;;21.39;63.42;101929.03;4963306;28;98721;-54
2021/07/18 01:14:45;;;;;;;7.23;3.77;;;20.90;99.90;;;21.41;63.36;101937.03;4962123;28;99314;-53
2021/07/18 01:17:11;;;;;;;4.73;3.30;;;20.90;99.90;;;21.33;62.33;101940.16;4962006;28;98194;-50
2021/07/18 01:19:40;;;;;;;6.40;3.50;;;20.90;99.90;;;21.35;63.96;101937.38;4967119;28;97929;-52
2021/07/18 01:22:06;;;;;;;6.17;3.50;;;20.90;99.90;;;21.37;63.58;101925.59;4973719;28;97512;-52
2021/07/18 01:24:33;;;;;;;4.83;3.43;;;20.90;99.90;;;21.39;63.54;101941.59;4969188;28;99340;-52
2021/07/18 01:27:01;;;;;;;5.83;3.30;;;20.90;99.90;;;21.41;63.66;101930.78;4962161;28;99619;-53
2021/07/18 01:29:29;;;;;;;4.70;3.23;;;20.90;99.90;;;21.35;63.65;101935.56;4978083;28;102273;-55
2021/07/18 01:31:56;;;;;;;4.03;2.93;;;20.90;99.90;;;21.36;62.90;101933.75;4967066;28;97752;-51
2021/07/18 01:34:23;;;;;;;4.23;3.30;;;20.90;99.90;;;21.37;63.92;101928.28;4967486;28;96937;-51
2021/07/18 01:36:50;;;;;;;5.03;3.70;;;20.90;99.90;;;21.35;63.17;101932.03;4961530;28;99049;-50
2021/07/18 01:39:17;;;;;;;6.30;3.63;;;20.90;99.90;;;21.33;62.78;101931.25;4964267;28;98466;-52
2021/07/18 01:41:49;;;;;;;5.23;3.40;;;20.80;99.90;;;21.34;63.56;101930.28;4966912;28;97956;-47
2021/07/18 01:44:15;;;;;;;6.63;3.40;;;20.80;99.90;;;21.29;63.66;101935.09;4957048;28;98310;-48
2021/07/18 01:46:41;;;;;;;6.50;3.23;;;20.80;99.90;;;21.24;63.44;101934.44;4967073;28;103331;-47
2021/07/18 01:49:09;;;;;;;6.33;3.87;;;20.70;99.90;;;21.21;63.07;101937.31;4962917;28;99345;-53
2021/07/18 01:51:35;;;;;;;4.90;3.73;;;20.70;99.90;;;21.15;62.86;101935.03;4962613;28;99208;-54
2021/07/18 01:54:06;;;;;;;3.83;2.83;;;20.70;99.90;;;21.18;63.43;101934.84;4961611;28;99072;-55
2021/07/18 01:56:32;;;;;;;5.13;4.60;;;20.60;99.90;;;21.17;63.56;101933.97;4963413;28;103729;-51
2021/07/18 01:58:58;;;;;;;6.33;4.57;;;20.70;99.90;;;21.14;62.44;101930.63;4980532;28;99156;-56
2021/07/18 02:01:28;;;;;;;3.67;3.33;;;20.60;99.90;;;21.18;64.01;101929.47;4959312;28;98164;-52
2021/07/18 02:03:58;;;;;;;6.73;4.27;;;20.70;99.90;;;21.12;63.78;101935.19;4980697;28;98500;-54
2021/07/18 02:06:26;;;;;;;5.23;3.70;;;20.60;99.90;;;21.04;62.60;101933.84;4963043;28;99804;-54
2021/07/18 02:08:53;;;;;;;5.23;3.47;;;20.60;99.90;;;21.05;63.56;101924.81;4966866;28;99361;-51
2021/07/18 02:11:21;;;;;;;5.93;3.90;;;20.50;99.90;;;21.01;62.57;101923.28;4963176;28;97392;-57
2021/07/18 02:13:53;;;;;;;4.67;3.30;;;20.50;99.90;;;20.98;64.24;101923.47;4967575;28;99052;-52
2021/07/18 02:16:21;;;;;;;4.70;3.47;;;20.50;99.90;;;21.02;64.51;101930.38;4960266;28;99563;-57
2021/07/18 02:18:48;;;;;;;4.83;3.43;;;20.50;99.90;;;21.05;64.27;101927.50;4968756;28;99128;-56
2021/07/18 02:21:17;;;;;;;4.70;3.43;;;20.50;99.90;;;20.93;63.26;101930.91;4960817;28;98518;-53
2021/07/18 02:23:43;;;;;;;3.80;3.20;;;20.40;99.90;;;20.97;64.66;101932.44;4967406;28;100582;-53
2021/07/18 02:26:10;;;;;;;4.80;3.90;;;20.40;99.90;;;20.98;64.20;101923.47;4957897;28;100130;-51
2021/07/18 02:28:35;;;;;;;4.07;3.20;;;20.50;99.90;;;20.99;64.00;101925.22;4959604;28;99282;-55
2021/07/18 02:31:04;;;;;;;4.93;3.70;;;20.40;99.90;;;21.00;64.61;101932.31;4964928;28;99066;-54
2021/07/18 02:33:31;;;;;;;4.97;3.47;;;20.40;99.90;;;21.00;64.08;101921.56;4968723;28;98401;-52
2021/07/18 02:35:59;;;;;;;3.10;2.73;;;20.40;99.90;;;21.01;63.81;101933.16;4970283;28;97465;-56
2021/07/18 02:38:26;;;;;;;5.40;3.20;;;20.50;99.90;;;20.98;63.29;101923.47;4987018;28;101166;-51
2021/07/18 02:40:52;;;;;;;4.13;3.40;;;20.40;99.90;;;21.01;64.39;101917.94;4985781;28;97083;-53
2021/07/18 02:43:19;;;;;;;5.77;3.53;;;20.50;99.90;;;20.99;63.16;101918.97;4979526;28;97469;-54
2021/07/18 02:45:45;;;;;;;4.97;3.43;;;20.40;99.90;;;20.98;63.33;101922.63;4991535;28;97601;-47
2021/07/18 02:48:11;;;;;;;7.10;3.23;;;20.40;99.90;;;20.98;64.28;101923.47;4981972;28;99231;-48
2021/07/18 02:50:36;;;;;;;4.37;3.20;;;20.40;99.90;;;20.99;64.40;101929.72;4992282;28;97478;-48
2021/07/18 02:53:03;;;;;;;8.70;3.60;;;20.40;99.90;;;20.99;64.39;101930.56;4983051;28;97320;-48
2021/07/18 02:55:30;;;;;;;5.07;3.50;;;20.50;99.90;;;20.99;64.47;101930.56;4979310;28;97466;-52
2021/07/18 02:57:56;;;;;;;6.20;3.37;;;20.40;99.90;;;20.92;62.27;101922.97;5006096;28;100442;-53
2021/07/18 03:00:26;;;;;;;5.17;3.70;;;20.40;99.90;;;20.87;63.29;101933.97;4996876;28;98212;-47
2021/07/18 03:02:52;;;;;;;6.43;3.80;;;20.30;99.90;;;20.87;64.59;101930.44;4986770;28;98843;-50
2021/07/18 03:05:18;;;;;;;6.60;3.47;;;20.30;99.90;;;20.90;64.42;101930.25;4980795;28;98889;-50
2021/07/18 03:07:46;;;;;;;4.93;3.77;;;20.30;99.90;;;20.87;64.41;101925.94;4992777;28;96886;-47
2021/07/18 03:10:19;;;;;;;4.97;3.53;;;20.30;99.90;;;20.89;63.60;101929.38;4984965;28;97451;-51
2021/07/18 03:12:46;;;;;;;6.87;3.10;;;20.30;99.90;;;20.86;63.33;101939.44;5003979;28;98343;-51
2021/07/18 03:15:16;;;;;;;5.43;3.37;;;20.30;99.90;;;20.78;62.62;101937.19;4986094;28;97968;-56
2021/07/18 03:17:42;;;;;;;4.33;3.23;;;20.20;99.90;;;20.76;62.46;101933.72;5001541;28;97274;-49
2021/07/18 03:20:13;;;;;;;5.97;3.57;;;20.20;99.90;;;20.77;64.77;101919.38;4981928;28;96822;-53
2021/07/18 03:22:40;;;;;;;5.80;3.60;;;20.20;99.90;;;20.77;63.08;101933.63;4983510;28;97637;-52
2021/07/18 03:25:08;;;;;;;7.50;3.80;;;20.30;99.90;;;20.67;63.92;101927.06;4975990;28;98741;-56
2021/07/18 03:27:34;;;;;;;6.37;4.33;;;20.10;99.90;;;20.70;64.03;101928.72;4987713;28;98645;-55
2021/07/18 03:30:00;;;;;;;4.87;4.00;;;20.20;99.90;;;20.68;64.80;101925.25;4994373;28;97040;-55
2021/07/18 03:32:26;;;;;;;6.70;4.03;;;20.10;99.90;;;20.67;63.56;101931.56;4987707;28;100951;-54
2021/07/18 03:34:53;;;;;;;6.37;4.40;;;20.20;99.90;;;20.65;63.86;101925.44;4990612;28;99278;-53
2021/07/18 03:37:20;;;;;;;6.03;4.13;;;20.10;99.90;;;20.72;64.86;101921.47;4998226;28;97236;-54
2021/07/18 03:39:46;;;;;;;6.97;4.00;;;20.20;99.90;;;20.68;64.60;101920.75;4991443;28;97208;-48
2021/07/18 03:42:12;;;;;;;4.60;3.90;;;20.20;99.90;;;20.71;64.39;101920.59;4979700;28;97766;-48
2021/07/18 03:44:40;;;;;;;4.93;4.17;;;20.20;99.90;;;20.76;64.88;101928.38;4988962;28;99572;-48
2021/07/18 03:47:06;;;;;;;5.90;3.67;;;20.20;99.90;;;20.78;64.30;101931.81;4978117;28;98593;-51
2021/07/18 03:49:33;;;;;;;4.67;4.23;;;20.30;99.90;;;20.76;64.32;101931.91;4986089;28;98352;-48
2021/07/18 03:51:59;;;;;;;6.43;4.47;;;20.20;99.90;;;20.77;64.61;101935.47;4986567;28;97735;-52
2021/07/18 03:54:25;;;;;;;5.30;4.80;;;20.20;99.90;;;20.79;64.97;101933.53;5003293;28;102697;-49
2021/07/18 03:56:51;;;;;;;4.73;4.23;;;20.20;99.90;;;20.74;64.93;101930.28;4986309;28;96983;-49
2021/07/18 03:59:17;;;;;;;7.10;4.67;;;20.20;99.90;;;20.71;64.42;101931.31;4983625;28;97561;-57
2021/07/18 04:01:42;;;;;;;6.93;4.63;;;20.20;99.90;;;20.67;63.84;101934.25;4972274;28;98336;-51
2021/07/18 04:04:08;;;;;;;6.70;4.90;;;20.10;99.90;;;20.61;64.21;101934.63;4990045;28;97531;-53
2021/07/18 04:06:34;;;;;;;6.20;4.70;;;20.10;99.90;;;20.63;65.69;101938.06;4985977;28;97622;-53
2021/07/18 04:09:00;;;;;;;6.63;4.60;;;20.10;99.90;;;20.61;63.96;101934.63;4984247;28;96822;-56
2021/07/18 04:11:26;;;;;;;5.60;4.60;;;20.10;99.90;;;20.63;64.74;101941.63;4984436;28;98886;-48
2021/07/18 04:13:51;;;;;;;6.30;4.63;;;20.10;99.90;;;20.62;65.25;101942.56;4988626;28;99014;-51
2021/07/18 04:16:17;;;;;;;8.57;4.73;;;20.10;99.90;;;20.64;65.61;101945.16;4986561;28;102050;-51
2021/07/18 04:18:43;;;;;;;5.47;4.57;;;20.10;99.90;;;20.65;65.35;101941.53;4990242;28;97213;-51
2021/07/18 04:21:09;;;;;;;5.33;4.27;;;20.10;99.90;;;20.58;64.22;101941.03;4985276;28;99465;-54
2021/07/18 04:23:35;;;;;;;6.23;4.53;;;20.10;99.90;;;20.60;65.10;101943.63;4991277;28;100170;-54
2021/07/18 04:26:01;;;;;;;5.13;4.40;;;20.00;99.90;;;20.58;64.40;101940.16;4998697;28;97371;-56
2021/07/18 04:28:27;;;;;;;7.27;4.60;;;20.00;99.90;;;20.54;64.37;101943.94;4989154;28;98975;-50
2021/07/18 04:30:52;;;;;;;9.40;4.67;;;20.00;99.90;;;20.50;64.95;101941.44;4988716;28;97212;-51
2021/07/18 04:33:19;;;;;;;6.67;4.37;;;20.00;99.90;;;20.46;65.33;101933.69;4991738;28;97021;-47
2021/07/18 04:35:44;;;;;;;5.80;4.70;;;19.90;99.90;;;20.45;65.23;101932.81;4988684;28;97552;-51
2021/07/18 04:38:10;;;;;;;7.37;4.77;;;19.90;99.90;;;20.45;66.09;101940.00;4983845;28;99240;-53
2021/07/18 04:40:36;;;;;;;6.87;5.40;;;19.90;99.90;;;20.41;66.04;101944.66;4985159;28;97592;-53
2021/07/18 04:43:03;;;;;;;8.03;5.33;;;19.90;99.90;;;20.42;66.41;101941.03;4988389;28;100050;-53
2021/07/18 04:45:30;;;;;;;8.20;5.67;;;19.90;99.90;;;20.44;66.43;101949.00;4991101;28;100383;-55
2021/07/18 04:47:57;;;;;;;6.63;5.87;;;19.90;99.90;;;20.45;66.26;101950.72;4991253;28;97888;-52
2021/07/18 04:50:26;;;;;;;6.20;5.60;;;19.90;99.90;;;20.47;66.44;101954.16;4981656;28;97553;-48
2021/07/18 04:52:53;;;;;;;7.27;5.80;;;19.90;99.90;;;20.48;66.65;101950.53;4999421;28;98468;-51
2021/07/18 04:55:19;;;;;;;7.37;6.30;;;20.00;99.90;;;20.48;66.54;101958.56;4992172;28;99176;-54
2021/07/18 04:57:46;;;;;;;9.67;6.43;;;20.00;99.90;;;20.49;66.76;101946.91;4990847;28;97791;-54
2021/07/18 05:00:15;;;;;;;10.70;6.70;;;20.00;99.90;;;20.50;66.90;101954.84;4990248;28;96943;-50
2021/07/18 05:02:41;;;;;;;9.73;7.03;;;20.00;99.90;;;20.50;66.71;101959.34;5004112;28;100712;-53
2021/07/18 05:05:09;;;;;;;10.90;7.50;;;20.00;99.90;;;20.48;66.62;101962.13;4990635;28;97219;-48
2021/07/18 05:07:54;;;;;;;9.63;8.47;;;20.00;99.90;;;20.54;66.98;101970.75;4991823;28;97130;-48
2021/07/18 05:10:24;;;;;;;10.47;8.37;;;20.10;99.90;;;20.57;67.19;101970.59;4981008;28;97526;-53
2021/07/18 05:12:52;;;;;;;10.50;8.07;;;20.10;99.90;;;20.56;67.08;101975.09;4997815;28;97907;-48
2021/07/18 05:15:20;;;;;;;9.90;8.00;;;20.10;99.90;;;20.58;67.07;101972.34;4982719;28;98078;-50
2021/07/18 05:17:46;;;;;;;11.33;9.13;;;20.10;99.90;;;20.60;67.28;101968.59;4994736;28;96855;-51
2021/07/18 05:20:15;;;;;;;13.77;9.43;;;20.20;99.90;;;20.66;67.17;101980.78;4983206;28;98055;-49
2021/07/18 05:22:41;;;;;;;12.93;10.40;;;20.20;99.90;;;20.70;67.08;101977.00;4984917;28;99391;-48
2021/07/18 05:25:09;;;;;;;16.13;10.47;;;20.30;99.90;;;20.72;67.41;101975.09;4982327;28;99636;-54
2021/07/18 05:27:36;;;;;;;14.07;11.10;;;20.30;99.90;;;20.79;67.14;101981.81;4987186;28;97482;-54
2021/07/18 05:30:11;;;;;;;13.30;11.43;;;20.40;99.90;;;20.85;66.99;101976.13;4988416;28;97319;-53
2021/07/18 05:32:38;;;;;;;15.03;11.77;;;20.40;99.90;;;20.88;66.87;101964.34;5000977;28;100716;-52
2021/07/18 05:35:06;;;;;;;13.90;11.40;;;20.50;99.90;;;20.87;67.19;101968.84;4989932;28;97348;-51
2021/07/18 05:37:32;;;;;;;17.10;12.37;;;20.50;99.90;;;20.89;67.03;101966.94;4991126;28;97405;-48
2021/07/18 05:39:58;;;;;;;13.33;10.37;;;20.50;99.90;;;20.98;66.22;101966.41;4984223;28;97238;-50
2021/07/18 05:42:24;;;;;;;16.37;12.17;;;20.60;99.90;;;21.00;66.49;101963.63;4983897;28;97666;-51
2021/07/18 05:44:50;;;;;;;18.97;12.47;;;20.60;99.90;;;20.99;66.54;101957.41;4984338;28;97522;-52
2021/07/18 05:47:15;;;;;;;19.23;12.90;;;20.60;99.90;;;21.04;66.64;101966.03;4981615;28;98606;-48
2021/07/18 05:49:41;;;;;;;15.33;11.87;;;20.70;99.90;;;21.05;66.38;101962.38;4981636;28;97519;-48
2021/07/18 05:52:08;;;;;;;14.50;12.37;;;20.70;99.90;;;21.08;66.47;101964.88;4983968;28;97616;-50
2021/07/18 05:54:35;;;;;;;14.93;12.60;;;20.70;99.90;;;21.14;66.19;101965.50;4984894;28;100217;-53
2021/07/18 05:57:01;;;;;;;14.63;12.00;;;20.70;99.90;;;21.17;66.19;101970.66;4989531;28;97379;-54
2021/07/18 05:59:27;;;;;;;11.37;8.90;;;20.80;99.90;;;21.27;65.91;101966.53;4985816;28;97272;-50
2021/07/18 06:01:52;;;;;;;16.00;11.83;;;20.90;99.90;;;21.33;65.67;101966.16;4984726;28;99968;-55
2021/07/18 06:04:19;;;;;;;14.27;11.17;;;21.00;99.90;;;21.38;65.05;101969.41;4985316;28;99544;-48
2021/07/18 06:06:45;;;;;;;16.13;11.10;;;21.00;99.90;;;21.39;65.41;101971.13;4994446;28;98586;-54
2021/07/18 06:09:11;;;;;;;14.77;11.13;;;21.00;99.90;;;21.43;65.14;101983.44;4989534;28;97601;-51
2021/07/18 06:11:36;;;;;;;16.27;9.47;;;21.10;99.90;;;21.49;64.65;101977.69;4988931;28;100400;-48
2021/07/18 06:14:03;;;;;;;14.07;9.67;;;21.10;99.90;;;21.47;65.44;101979.59;4986771;28;97285;-51
2021/07/18 06:16:29;;;;;;;11.20;9.30;;;21.10;99.90;;;21.50;65.29;101979.41;4984492;28;97508;-51
2021/07/18 06:18:54;;;;;;;12.53;9.77;;;21.20;99.90;;;21.53;64.54;101978.34;4982983;28;97282;-53
2021/07/18 06:21:21;;;;;;;10.33;8.30;;;21.20;99.90;;;21.50;65.61;101983.91;4968423;28;100917;-53
2021/07/18 06:23:47;;;;;;;11.37;8.20;;;21.20;99.90;;;21.55;64.70;101976.44;4988507;28;97833;-53
2021/07/18 06:26:14;;;;;;;10.80;8.63;;;21.20;99.90;;;21.46;65.53;101980.56;4980744;28;97318;-51
2021/07/18 06:28:40;;;;;;;12.77;8.40;;;21.10;99.90;;;21.49;64.88;101977.69;4982228;28;97481;-54
2021/07/18 06:31:06;;;;;;;12.33;9.17;;;21.20;99.90;;;21.46;65.16;101975.19;4986478;28;96981;-47
2021/07/18 06:33:32;;;;;;;11.27;7.40;;;21.20;99.90;;;21.42;65.11;101984.38;4983946;28;97788;-51
2021/07/18 06:35:58;;;;;;;15.37;8.37;;;21.10;99.90;;;21.44;64.76;101974.41;4986120;28;97529;-48
2021/07/18 06:38:24;;;;;;;13.53;8.97;;;21.10;99.90;;;21.52;65.25;101977.47;4985538;28;98352;-50
2021/07/18 06:40:50;;;;;;;11.43;8.53;;;21.20;99.90;;;21.48;65.08;101975.94;4979725;28;97746;-47
2021/07/18 06:43:17;;;;;;;11.73;8.30;;;21.20;99.90;;;21.52;64.44;101977.47;4985388;28;99803;-56
2021/07/18 06:45:43;;;;;;;10.37;8.10;;;21.20;99.90;;;21.60;64.11;101988.63;4972162;28;96938;-52
2021/07/18 06:48:09;;;;;;;9.87;7.20;;;21.30;99.90;;;21.73;63.61;101987.88;4987237;28;99383;-51
2021/07/18 06:50:35;;;;;;;13.27;8.20;;;21.40;99.90;;;21.64;63.92;101986.63;4986597;28;98554;-54
2021/07/18 06:53:01;;;;;;;11.67;7.37;;;21.40;99.90;;;21.71;63.57;101992.50;4972385;28;98211;-56
2021/07/18 06:55:27;;;;;;;8.13;7.07;;;21.40;99.90;;;21.74;63.28;102000.34;4998780;28;97184;-52
2021/07/18 06:57:53;;;;;;;9.77;7.03;;;21.50;99.90;;;21.71;62.88;101992.50;5003867;28;97027;-48
2021/07/18 07:00:22;;;;;;;7.70;6.23;;;21.50;99.90;;;21.68;63.51;101994.38;4985174;28;99538;-51
2021/07/18 07:02:48;;;;;;;9.30;6.43;;;21.40;99.90;;;21.77;63.18;101976.00;4991593;28;98552;-48
2021/07/18 07:05:16;;;;;;;4.57;3.40;;;21.50;99.90;;;21.84;63.21;101983.56;4980063;28;98427;-53
2021/07/18 07:07:46;;;;;;;8.93;5.87;;;21.60;99.90;;;21.89;63.64;101977.91;4981457;28;98523;-53
2021/07/18 07:10:19;;;;;;;9.97;5.90;;;21.70;99.90;;;21.89;62.15;101992.22;4973599;28;97683;-49
2021/07/18 07:12:46;;;;;;;8.73;5.73;;;21.70;99.90;;;21.86;62.28;101988.84;5001514;28;98776;-51
2021/07/18 07:15:13;;;;;;;7.93;5.83;;;21.60;99.90;;;21.88;62.32;101990.50;4975023;28;97627;-51
2021/07/18 07:17:42;;;;;;;6.17;4.27;;;21.60;99.90;;;21.92;62.72;101985.78;5002652;28;97266;-55
2021/07/18 07:20:11;;;;;;;8.97;5.03;;;21.70;99.90;;;21.90;62.81;101987.69;4980841;28;97176;-50
2021/07/18 07:22:37;;;;;;;3.80;3.50;;;21.70;99.90;;;21.99;62.51;101987.13;4981705;28;98521;-51
2021/07/18 07:25:06;;;;;;;7.53;4.80;;;21.80;99.90;;;22.08;62.32;101991.09;4980643;28;96869;-50
2021/07/18 07:27:32;;;;;;;5.73;5.03;;;21.90;99.90;;;22.04;61.66;101990.38;5001333;28;97535;-54
2021/07/18 07:29:58;;;;;;;6.23;4.47;;;21.80;99.90;;;22.10;61.96;101992.72;4981246;28;97533;-54
2021/07/18 07:32:24;;;;;;;7.53;4.60;;;21.90;99.90;;;22.09;61.99;101993.66;4977441;28;98470;-49
2021/07/18 07:34:50;;;;;;;7.13;4.70;;;21.90;99.90;;;22.12;62.18;101990.78;4977412;28;98188;-51
2021/07/18 07:37:16;;;;;;;6.40;4.50;;;21.90;99.90;;;22.18;61.96;101993.09;4975911;28;97375;-50
2021/07/18 07:39:42;;;;;;;7.40;4.03;;;21.90;99.90;;;22.25;61.09;101989.06;4978844;28;97773;-48
2021/07/18 07:42:08;;;;;;;8.17;4.40;;;22.10;99.90;;;22.22;61.43;101983.88;4985580;28;97290;-50
2021/07/18 07:44:34;;;;;;;4.93;3.10;;;22.10;99.90;;;22.31;61.47;101993.19;4984463;28;97409;-52
2021/07/18 07:47:01;;;;;;;5.00;4.37;;;22.10;99.90;;;22.31;60.48;101986.94;4997883;28;97437;-48
2021/07/18 07:49:27;;;;;;;7.83;4.03;;;22.20;99.90;;;22.32;59.85;101983.31;5000372;28;104211;-52
2021/07/18 07:51:53;;;;;;;4.00;3.10;;;22.20;99.90;;;22.37;61.19;101987.41;4988516;28;97661;-51
2021/07/18 07:54:19;;;;;;;5.47;3.43;;;22.20;99.90;;;22.42;60.86;101979.94;4987345;28;97324;-49
2021/07/18 07:56:45;;;;;;;4.63;3.30;;;22.30;99.90;;;22.47;60.97;101982.31;4993673;28;97336;-51
2021/07/18 07:59:11;;;;;;;5.47;3.70;;;22.30;99.90;;;22.52;60.59;101981.03;4989074;28;99415;-53
2021/07/18 08:01:36;;;;;;;2.90;2.70;;;22.40;99.90;;;22.57;60.54;101978.06;4967952;28;97434;-55
2021/07/18 08:04:02;;;;;;;6.23;3.37;;;22.40;99.90;;;22.61;60.08;101984.97;4988773;28;97812;-55
2021/07/18 08:06:28;;;;;;;5.17;4.00;;;22.50;99.90;;;22.64;60.10;101990.13;5001599;28;96955;-53
2021/07/18 08:08:54;;;;;;;8.10;4.10;;;22.50;99.90;;;22.63;60.21;101983.03;5003338;28;100205;-53
2021/07/18 08:11:20;;;;;;;4.63;3.43;;;22.50;99.90;;;22.62;59.20;101992.06;4991266;28;98979;-56
2021/07/18 08:13:46;;;;;;;5.03;3.53;;;22.50;99.90;;;22.60;58.95;101994.00;4992588;28;96784;-53
2021/07/18 08:16:12;;;;;;;4.70;3.37;;;22.50;99.90;;;22.58;59.25;101982.47;4997859;28;98224;-51
2021/07/18 08:18:38;;;;;;;5.97;3.60;;;22.40;99.90;;;22.59;58.53;101981.53;4983400;28;100582;-52
2021/07/18 08:21:04;;;;;;;4.37;3.10;;;22.40;99.90;;;22.61;59.44;101984.97;4988340;28;98423;-50
2021/07/18 08:23:31;;;;;;;2.60;2.40;;;22.50;99.90;;;22.63;60.12;101983.03;4987889;28;97347;-50
2021/07/18 08:25:57;;;;;;;7.03;3.50;;;22.50;99.90;;;22.63;59.99;101983.03;4995813;28;101365;-51
2021/07/18 08:28:24;;;;;;;6.80;2.93;;;22.50;99.90;;;22.65;59.63;101981.09;4998859;28;99328;-51
2021/07/18 08:30:51;;;;;;;4.53;3.27;;;22.50;99.90;;;22.69;59.47;101977.25;4995060;28;97417;-52
2021/07/18 08:33:17;;;;;;;7.13;3.57;;;22.60;99.90;;;22.69;59.39;101971.84;4991163;28;101448;-54
2021/07/18 08:35:43;;;;;;;4.30;3.30;;;22.60;99.90;;;22.67;59.84;101968.41;4998386;28;97507;-53
2021/07/18 08:38:09;;;;;;;2.70;2.23;;;22.50;99.90;;;22.65;60.11;101970.34;4991605;28;98144;-54
2021/07/18 08:40:37;;;;;;;3.37;2.60;;;22.60;99.90;;;22.68;59.98;101963.91;5010316;28;99084;-54
2021/07/18 08:43:05;;;;;;;2.67;2.47;;;22.60;99.90;;;22.74;59.95;101968.88;4992101;28;97365;-52
2021/07/18 08:45:32;;;;;;;2.93;2.63;;;22.70;99.90;;;22.78;59.73;101965.88;4990735;28;97181;-50
2021/07/18 08:47:58;;;;;;;6.87;3.40;;;22.80;99.90;;;22.83;59.54;101973.66;5004788;28;100069;-54
2021/07/18 08:50:24;;;;;;;6.23;3.83;;;22.80;99.90;;;22.85;58.63;101971.72;4984463;28;97989;-48
2021/07/18 08:52:55;;;;;;;3.73;2.90;;;22.80;99.90;;;22.88;59.09;101968.00;4990953;28;96979;-50
2021/07/18 08:55:25;;;;;;;3.90;3.30;;;22.80;99.90;;;22.92;59.32;101962.31;4992231;28;98809;-52
2021/07/18 08:57:52;;;;;;;8.30;4.10;;;22.90;99.90;;;22.91;58.48;101963.28;4986534;28;97670;-52
2021/07/18 09:00:20;;;;;;;3.13;2.40;;;22.90;99.90;;;22.90;59.42;101960.69;4986807;28;97550;-53
2021/07/18 09:02:46;;;;;;;2.93;2.37;;;22.90;99.90;;;22.95;59.21;101953.16;4991197;28;97123;-49
2021/07/18 09:05:12;;;;;;;7.13;3.60;;;22.90;99.90;;;22.97;58.17;101948.53;4989887;28;100538;-50
2021/07/18 09:07:53;;;;;;;4.87;3.23;;;22.90;99.90;;;23.01;58.67;101950.06;4989243;28;100208;-50
2021/07/18 09:10:31;;;;;;;4.50;2.50;;;23.00;99.90;;;23.01;58.88;101952.75;4988001;28;97333;-54
2021/07/18 09:13:12;;;;;;;4.73;3.60;;;23.00;99.90;;;23.04;59.15;101949.84;4981362;28;96976;-49
2021/07/18 09:15:42;;;;;;;4.83;3.53;;;23.00;99.90;;;23.04;58.50;101944.47;4987848;28;97535;-52
2021/07/18 09:18:16;;;;;;;4.63;2.80;;;23.00;99.90;;;23.07;58.65;101949.66;4996969;28;97320;-51
2021/07/18 09:20:46;;;;;;;6.83;4.00;;;23.00;99.90;;;23.05;57.63;101944.38;4987388;28;100131;-53
2021/07/18 09:23:30;;;;;;;4.07;2.93;;;23.00;99.90;;;23.07;58.38;101939.75;4986428;28;99449;-48
2021/07/18 09:26:22;;;;;;;6.07;3.90;;;23.00;99.90;;;23.08;58.90;101946.00;5002531;28;97535;-55
2021/07/18 09:28:49;;;;;;;3.50;3.13;;;23.00;99.90;;;23.00;59.14;101953.69;4965462;28;103875;-54
2021/07/18 09:31:38;;;;;;;5.70;4.27;;;23.00;99.90;;;23.07;57.38;101955.03;4963315;28;97039;-51
2021/07/18 09:34:16;;;;;;;5.97;4.13;;;23.00;99.90;;;23.08;58.82;101949.53;4970931;28;97760;-48
2021/07/18 09:36:42;;;;;;;5.03;4.33;;;23.10;99.90;;;23.08;58.31;101948.69;4986304;28;97416;-52
2021/07/18 09:39:13;;;;;;;7.73;4.20;;;23.10;99.90;;;23.12;58.16;101952.88;4978056;28;99232;-52
2021/07/18 09:41:42;;;;;;;3.50;2.97;;;23.10;99.90;;;23.09;58.46;101943.19;4970255;28;98583;-49
2021/07/18 09:44:09;;;;;;;7.97;5.13;;;23.10;99.90;;;23.13;58.85;101943.84;4966608;28;97903;-57
2021/07/18 09:46:36;;;;;;;5.80;4.63;;;23.10;99.90;;;23.11;58.67;101941.25;4971360;28;98641;-51
2021/07/18 09:49:04;;;;;;;3.60;3.00;;;23.10;99.90;;;23.12;58.35;101944.81;4965760;28;98629;-52
2021/07/18 09:51:33;;;;;;;6.60;4.60;;;23.10;99.90;;;23.15;58.22;101947.31;4980960;28;104255;-54
2021/07/18 09:54:13;;;;;;;5.70;5.10;;;23.20;99.90;;;23.22;57.53;101945.91;4970193;28;98366;-53
2021/07/18 09:56:40;;;;;;;7.57;5.07;;;23.20;99.90;;;23.23;58.10;101942.25;4962983;28;98679;-56
2021/07/18 09:59:06;;;;;;;8.43;5.85;;;23.20;99.90;;;23.21;56.95;101940.63;4962164;28;102769;-56
2021/07/18 10:01:35;;;;;;;7.00;5.27;;;23.20;99.90;;;23.26;57.13;101944.72;4970331;28;100380;-56
2021/07/18 10:04:03;;;;;;;6.57;4.53;;;23.30;99.90;;;23.27;57.66;101935.69;4982690;28;97946;-51
2021/07/18 10:06:32;;;;;;;4.60;3.83;;;23.30;99.90;;;23.23;57.85;101928.78;4962240;28;98075;-55
2021/07/18 10:09:02;;;;;;;4.53;3.97;;;23.30;99.90;;;23.25;57.70;101926.84;4963644;28;101083;-54
2021/07/18 10:11:30;;;;;;;6.25;4.18;;;23.30;99.90;;;23.27;58.16;101926.75;4967082;28;99984;-53